Time;durP1;ratioP1;P1;durP2;ratioP2;P2;SDS_P1;SDS_P2;PMS_P1;PMS_P2;Temp;Humidity;BMP_temperature;BMP_pressure;BME280_temperature;BME280_humidity;BME280_pressure;Samples;Min_cycle;Max_cycle;Signal;HPM_P1;HPM_P2
2023/09/27 00:00:40;;;;;;;12.32;7.72;;;13.60;99.90;;;;;;5026474;28;20040;-55
2023/09/27 00:03:06;;;;;;;17.70;8.07;;;13.50;99.90;;;;;;5019508;28;20041;-59
2023/09/27 00:05:32;;;;;;;13.30;8.45;;;13.50;99.90;;;;;;5023696;28;20452;-56
2023/09/27 00:07:58;;;;;;;16.10;8.00;;;13.50;99.90;;;;;;5020100;28;20053;-58
2023/09/27 00:10:23;;;;;;;10.60;8.02;;;13.40;99.90;;;;;;5024402;28;20515;-57
2023/09/27 00:12:49;;;;;;;12.40;7.93;;;13.50;99.90;;;;;;5027969;28;20022;-57
2023/09/27 00:15:15;;;;;;;13.18;7.80;;;13.40;99.90;;;;;;5019203;28;20022;-58
2023/09/27 00:17:42;;;;;;;13.85;8.15;;;13.50;99.90;;;;;;5020878;28;20041;-57
2023/09/27 00:20:11;;;;;;;13.60;8.27;;;13.40;99.90;;;;;;5024869;28;20416;-58
2023/09/27 00:22:37;;;;;;;15.93;7.43;;;13.40;99.90;;;;;;5025739;28;20026;-59
2023/09/27 00:25:04;;;;;;;11.05;6.78;;;13.40;99.90;;;;;;5019186;28;20369;-58
2023/09/27 00:27:30;;;;;;;9.80;7.32;;;13.40;99.90;;;;;;5029989;28;20029;-56
2023/09/27 00:29:56;;;;;;;13.40;8.73;;;13.40;99.90;;;;;;5019831;28;20026;-57
2023/09/27 00:32:21;;;;;;;10.32;7.35;;;13.40;99.90;;;;;;5021634;28;20403;-59
2023/09/27 00:34:47;;;;;;;12.88;8.25;;;13.30;99.90;;;;;;5023432;28;20033;-58
2023/09/27 00:37:13;;;;;;;15.05;7.45;;;13.30;99.90;;;;;;5026644;28;20107;-60
2023/09/27 00:39:39;;;;;;;16.45;7.75;;;13.40;99.90;;;;;;5019168;28;20403;-59
2023/09/27 00:42:04;;;;;;;11.48;8.23;;;13.30;99.90;;;;;;5026725;28;20175;-59
2023/09/27 00:44:30;;;;;;;13.43;8.20;;;13.20;99.90;;;;;;5019510;28;20149;-58
2023/09/27 00:46:56;;;;;;;11.98;7.78;;;13.20;99.90;;;;;;5025197;28;20034;-59
2023/09/27 00:49:22;;;;;;;13.93;7.75;;;13.20;99.90;;;;;;5022095;28;20018;-57
2023/09/27 00:51:47;;;;;;;12.43;8.07;;;13.10;99.90;;;;;;5025610;28;20032;-57
2023/09/27 00:54:13;;;;;;;19.30;8.43;;;13.10;99.90;;;;;;5026071;28;20392;-56
2023/09/27 00:56:40;;;;;;;13.60;7.90;;;13.00;99.90;;;;;;5020126;28;20093;-58
2023/09/27 00:59:07;;;;;;;16.70;8.60;;;13.00;99.90;;;;;;5019233;28;20032;-59
2023/09/27 01:01:33;;;;;;;13.27;8.63;;;13.00;99.90;;;;;;5024138;28;20017;-59
2023/09/27 01:03:59;;;;;;;11.10;7.60;;;13.00;99.90;;;;;;5017447;28;20025;-59
2023/09/27 01:06:25;;;;;;;10.18;7.90;;;13.00;99.90;;;;;;5017165;28;20029;-59
2023/09/27 01:08:50;;;;;;;14.65;8.32;;;12.90;99.90;;;;;;5014861;28;20030;-59
2023/09/27 01:11:16;;;;;;;12.77;8.07;;;13.00;99.90;;;;;;5029514;28;20551;-59
2023/09/27 01:13:42;;;;;;;14.70;8.30;;;13.00;99.90;;;;;;5018487;28;20112;-60
2023/09/27 01:16:08;;;;;;;12.75;8.20;;;12.90;99.90;;;;;;5027693;28;20624;-59
2023/09/27 01:18:33;;;;;;;12.13;8.75;;;12.90;99.90;;;;;;5017148;28;20415;-58
2023/09/27 01:21:00;;;;;;;13.48;8.38;;;12.80;99.90;;;;;;5034671;28;20078;-58
2023/09/27 01:23:25;;;;;;;14.93;8.90;;;12.80;99.90;;;;;;5021009;28;20037;-60
2023/09/27 01:25:58;;;;;;;12.90;7.88;;;12.80;99.90;;;;;;5024683;28;20110;-58
2023/09/27 01:28:24;;;;;;;12.10;9.35;;;12.80;99.90;;;;;;5028451;28;20036;-59
2023/09/27 01:30:50;;;;;;;18.35;9.75;;;12.80;99.90;;;;;;5026466;28;20308;-59
2023/09/27 01:33:16;;;;;;;14.75;9.02;;;12.80;99.90;;;;;;5020593;28;20391;-58
2023/09/27 01:35:43;;;;;;;12.63;9.05;;;12.80;99.90;;;;;;5026430;28;20033;-59
2023/09/27 01:38:10;;;;;;;16.08;8.45;;;12.70;99.90;;;;;;5022593;28;20120;-60
2023/09/27 01:40:38;;;;;;;13.85;8.95;;;12.80;99.90;;;;;;5029877;28;20033;-54
2023/09/27 01:43:04;;;;;;;13.50;8.80;;;12.70;99.90;;;;;;5023454;28;20116;-59
2023/09/27 01:45:30;;;;;;;11.80;8.43;;;12.80;99.90;;;;;;5027250;28;20057;-59
2023/09/27 01:47:57;;;;;;;11.80;8.95;;;12.70;99.90;;;;;;5027873;28;20029;-59
2023/09/27 01:50:24;;;;;;;14.30;8.75;;;12.70;99.90;;;;;;5025889;28;20400;-59
2023/09/27 01:52:54;;;;;;;12.98;9.10;;;12.80;99.90;;;;;;5021125;28;20111;-58
2023/09/27 01:55:20;;;;;;;13.55;8.30;;;12.80;99.90;;;;;;5027852;28;20430;-59
2023/09/27 01:57:46;;;;;;;13.35;8.63;;;12.70;99.90;;;;;;5021578;28;20041;-59
2023/09/27 02:00:16;;;;;;;10.35;8.40;;;12.70;99.90;;;;;;5022814;28;20021;-59
2023/09/27 02:02:47;;;;;;;13.82;9.20;;;12.70;99.90;;;;;;5023910;28;20112;-56
2023/09/27 02:05:12;;;;;;;13.18;8.70;;;12.70;99.90;;;;;;5022789;28;20026;-55
2023/09/27 02:07:39;;;;;;;15.35;8.75;;;12.70;99.90;;;;;;5024134;28;20047;-58
2023/09/27 02:10:06;;;;;;;13.43;9.38;;;12.60;99.90;;;;;;5021295;28;20112;-58
2023/09/27 02:12:31;;;;;;;14.18;8.45;;;12.60;99.90;;;;;;5023811;28;20022;-58
2023/09/27 02:14:57;;;;;;;16.98;7.65;;;12.50;99.90;;;;;;5018402;28;20111;-58
2023/09/27 02:17:22;;;;;;;16.23;9.00;;;12.40;99.90;;;;;;5023933;28;20517;-59
2023/09/27 02:19:48;;;;;;;12.18;8.55;;;12.40;99.90;;;;;;5017728;28;20034;-59
2023/09/27 02:22:13;;;;;;;16.08;9.93;;;12.40;99.90;;;;;;5025734;28;20474;-58
2023/09/27 02:24:40;;;;;;;22.33;8.98;;;12.40;99.90;;;;;;5017752;28;20030;-58
2023/09/27 02:27:05;;;;;;;13.30;8.95;;;12.40;99.90;;;;;;5028373;28;20064;-56
2023/09/27 02:29:32;;;;;;;13.88;9.68;;;12.30;99.90;;;;;;5018616;28;20033;-59
2023/09/27 02:31:58;;;;;;;16.10;9.18;;;12.30;99.90;;;;;;5024551;28;20018;-59
2023/09/27 02:34:25;;;;;;;15.25;9.50;;;12.30;99.90;;;;;;5026317;28;20025;-57
2023/09/27 02:36:50;;;;;;;15.13;9.10;;;12.40;99.90;;;;;;5027192;28;20044;-57
2023/09/27 02:39:16;;;;;;;12.13;8.80;;;12.30;99.90;;;;;;5013870;28;20022;-59
2023/09/27 02:41:41;;;;;;;11.13;8.98;;;12.30;99.90;;;;;;5025899;28;20553;-59
2023/09/27 02:44:07;;;;;;;20.70;9.43;;;12.30;99.90;;;;;;5021095;28;20456;-59
2023/09/27 02:46:32;;;;;;;16.30;9.07;;;12.20;99.90;;;;;;5022153;28;20034;-56
2023/09/27 02:48:58;;;;;;;14.95;8.98;;;12.20;99.90;;;;;;5027390;28;20112;-59
2023/09/27 02:51:23;;;;;;;11.70;8.88;;;12.20;99.90;;;;;;5031993;28;20079;-59
2023/09/27 02:53:49;;;;;;;14.35;8.80;;;12.20;99.90;;;;;;5027416;28;20043;-59
2023/09/27 02:56:14;;;;;;;13.63;8.48;;;12.10;99.90;;;;;;5024610;28;20037;-58
2023/09/27 02:58:40;;;;;;;13.57;9.15;;;12.10;99.90;;;;;;5020115;28;20033;-59
2023/09/27 03:01:05;;;;;;;19.35;9.43;;;12.00;99.90;;;;;;5023931;28;20161;-59
2023/09/27 03:03:31;;;;;;;16.73;9.88;;;12.00;99.90;;;;;;5033430;28;20078;-57
2023/09/27 03:05:58;;;;;;;17.05;10.48;;;12.00;99.90;;;;;;5024602;28;20033;-59
2023/09/27 03:08:24;;;;;;;15.73;9.48;;;11.90;99.90;;;;;;5029905;28;20403;-57
2023/09/27 03:10:49;;;;;;;14.05;9.25;;;11.90;99.90;;;;;;5021054;28;20033;-59
2023/09/27 03:13:15;;;;;;;24.30;10.90;;;11.90;99.90;;;;;;5019930;28;20103;-59
2023/09/27 03:15:41;;;;;;;18.00;10.15;;;11.80;99.90;;;;;;5018313;28;20022;-59
2023/09/27 03:18:07;;;;;;;15.95;10.07;;;11.90;99.90;;;;;;5023394;28;20033;-59
2023/09/27 03:20:33;;;;;;;19.73;10.68;;;11.90;99.90;;;;;;5024504;28;20076;-60
2023/09/27 03:22:58;;;;;;;13.68;10.00;;;11.90;99.90;;;;;;5020623;28;20041;-58
2023/09/27 03:25:24;;;;;;;22.77;10.82;;;12.00;99.90;;;;;;5022453;28;20112;-59
2023/09/27 03:27:49;;;;;;;17.20;10.93;;;11.90;99.90;;;;;;5023132;28;20033;-59
2023/09/27 03:30:16;;;;;;;16.67;10.55;;;12.00;99.90;;;;;;5024162;28;20035;-59
2023/09/27 03:32:42;;;;;;;21.40;11.38;;;12.00;99.90;;;;;;5024693;28;20033;-59
2023/09/27 03:35:08;;;;;;;17.80;11.43;;;12.10;99.90;;;;;;5030111;28;20024;-59
2023/09/27 03:37:34;;;;;;;19.58;11.85;;;12.10;99.90;;;;;;5032735;28;20117;-60
2023/09/27 03:40:03;;;;;;;20.40;12.43;;;12.00;99.90;;;;;;5022436;28;20056;-59
2023/09/27 03:42:29;;;;;;;18.67;10.52;;;12.00;99.90;;;;;;5022345;28;20039;-57
2023/09/27 03:44:55;;;;;;;15.10;9.88;;;12.10;99.90;;;;;;5022388;28;20048;-57
2023/09/27 03:47:20;;;;;;;16.17;10.60;;;12.10;99.90;;;;;;5027623;28;20846;-59
2023/09/27 03:49:46;;;;;;;19.38;11.52;;;12.10;99.90;;;;;;5027270;28;20419;-55
2023/09/27 03:52:12;;;;;;;20.17;11.77;;;12.10;99.90;;;;;;5025832;28;20484;-59
2023/09/27 03:54:37;;;;;;;17.30;11.80;;;12.10;99.90;;;;;;5030163;28;20041;-57
2023/09/27 03:57:03;;;;;;;16.80;11.85;;;12.10;99.90;;;;;;5032554;28;20029;-58
2023/09/27 03:59:29;;;;;;;20.77;11.43;;;12.10;99.90;;;;;;5028485;28;20082;-58
2023/09/27 04:01:55;;;;;;;18.70;11.55;;;12.10;99.90;;;;;;5024222;28;20072;-58
2023/09/27 04:04:21;;;;;;;18.02;12.10;;;12.00;99.90;;;;;;5027850;28;20036;-59
2023/09/27 04:06:47;;;;;;;22.83;11.63;;;12.00;99.90;;;;;;5028251;28;20102;-58
2023/09/27 04:09:12;;;;;;;21.35;11.85;;;12.10;99.90;;;;;;5027176;28;20022;-59
2023/09/27 04:11:38;;;;;;;21.45;11.52;;;12.10;99.90;;;;;;5033258;28;20033;-59
2023/09/27 04:14:04;;;;;;;18.67;11.15;;;12.10;99.90;;;;;;5027110;28;20034;-59
2023/09/27 04:16:30;;;;;;;20.85;11.10;;;12.10;99.90;;;;;;5030919;28;20059;-59
2023/09/27 04:18:59;;;;;;;18.55;11.73;;;12.00;99.90;;;;;;5029477;28;20064;-58
2023/09/27 04:21:25;;;;;;;17.80;11.75;;;12.00;99.90;;;;;;5023809;28;20077;-59
2023/09/27 04:23:59;;;;;;;17.55;11.10;;;12.00;99.90;;;;;;5017141;28;20030;-58
2023/09/27 04:26:25;;;;;;;18.33;12.07;;;12.00;99.90;;;;;;5024044;28;20025;-58
2023/09/27 04:28:52;;;;;;;20.52;12.95;;;12.00;99.90;;;;;;5019328;28;20045;-59
2023/09/27 04:31:18;;;;;;;27.85;14.65;;;12.10;99.90;;;;;;5022850;28;20407;-59
2023/09/27 04:33:44;;;;;;;18.65;12.27;;;12.10;99.90;;;;;;5016742;28;20026;-58
2023/09/27 04:36:15;;;;;;;19.08;11.98;;;12.10;99.90;;;;;;5025226;28;20029;-57
2023/09/27 04:38:41;;;;;;;18.33;12.07;;;12.10;99.90;;;;;;5021673;28;20561;-58
2023/09/27 04:41:08;;;;;;;19.05;12.35;;;12.00;99.90;;;;;;5022771;28;20040;-58
2023/09/27 04:43:34;;;;;;;17.20;12.40;;;12.00;99.90;;;;;;5015851;28;20038;-60
2023/09/27 04:45:59;;;;;;;20.92;13.18;;;12.10;99.90;;;;;;5019676;28;20032;-60
2023/09/27 04:48:25;;;;;;;20.77;12.52;;;12.00;99.90;;;;;;5023079;28;20033;-59
2023/09/27 04:50:50;;;;;;;22.63;13.30;;;11.90;99.90;;;;;;5021303;28;20368;-57
2023/09/27 04:53:16;;;;;;;22.92;13.60;;;11.90;99.90;;;;;;5021970;28;20172;-59
2023/09/27 04:55:42;;;;;;;20.77;13.48;;;11.90;99.90;;;;;;5018943;28;20029;-59
2023/09/27 04:58:07;;;;;;;20.83;13.23;;;11.90;99.90;;;;;;5024610;28;20052;-59
2023/09/27 05:00:33;;;;;;;23.88;13.32;;;11.90;99.90;;;;;;5026272;28;20037;-57
2023/09/27 05:02:58;;;;;;;21.95;13.20;;;11.90;99.90;;;;;;5023389;28;20040;-58
2023/09/27 05:05:24;;;;;;;19.20;12.15;;;11.80;99.90;;;;;;5021104;28;20108;-56
2023/09/27 05:07:49;;;;;;;17.55;12.50;;;11.80;99.90;;;;;;5033587;28;20366;-60
2023/09/27 05:10:15;;;;;;;23.40;13.57;;;11.80;99.90;;;;;;5018578;28;20040;-59
2023/09/27 05:12:41;;;;;;;18.00;12.30;;;11.80;99.90;;;;;;5023105;28;20094;-60
2023/09/27 05:15:09;;;;;;;17.92;12.48;;;11.90;99.90;;;;;;5019187;28;20037;-59
2023/09/27 05:17:34;;;;;;;19.13;13.18;;;11.80;99.90;;;;;;4987745;28;1043891;-59
2023/09/27 05:20:01;;;;;;;22.38;13.45;;;11.80;99.90;;;;;;5022113;28;20404;-60
2023/09/27 05:22:26;;;;;;;19.33;11.45;;;11.80;99.90;;;;;;5028258;28;20025;-57
2023/09/27 05:24:52;;;;;;;18.27;12.05;;;11.80;99.90;;;;;;5021175;28;20030;-59
2023/09/27 05:27:17;;;;;;;25.50;13.10;;;11.80;99.90;;;;;;5022116;28;20045;-60
2023/09/27 05:29:43;;;;;;;22.70;13.93;;;11.80;99.90;;;;;;5011108;28;20036;-59
2023/09/27 05:32:08;;;;;;;22.75;14.07;;;11.80;99.90;;;;;;5016126;28;20016;-59
2023/09/27 05:34:34;;;;;;;20.17;13.68;;;11.80;99.90;;;;;;5017221;28;20041;-58
2023/09/27 05:37:00;;;;;;;21.13;12.95;;;11.80;99.90;;;;;;5017438;28;20029;-59
2023/09/27 05:39:26;;;;;;;21.40;13.13;;;11.80;99.90;;;;;;5019019;28;20040;-58
2023/09/27 05:41:52;;;;;;;20.52;12.93;;;11.70;99.90;;;;;;5027161;28;20025;-58
2023/09/27 05:44:17;;;;;;;22.50;13.52;;;11.70;99.90;;;;;;5022067;28;20022;-59
2023/09/27 05:46:44;;;;;;;19.83;14.30;;;11.70;99.90;;;;;;5024333;28;20022;-59
2023/09/27 05:49:11;;;;;;;21.05;13.57;;;11.80;99.90;;;;;;5023624;28;20062;-56
2023/09/27 05:51:37;;;;;;;24.25;14.02;;;11.90;99.90;;;;;;5028826;28;20022;-59
2023/09/27 05:54:05;;;;;;;22.50;15.25;;;12.00;99.90;;;;;;5022177;28;20036;-60
2023/09/27 05:56:32;;;;;;;28.67;15.77;;;12.10;99.90;;;;;;5026268;28;20104;-58
2023/09/27 05:58:59;;;;;;;30.50;16.80;;;12.30;99.90;;;;;;5020850;28;20061;-56
2023/09/27 06:01:25;;;;;;;28.98;16.90;;;12.40;99.90;;;;;;5014505;28;20025;-58
2023/09/27 06:03:50;;;;;;;23.88;16.98;;;12.50;99.90;;;;;;5032340;28;20383;-60
2023/09/27 06:06:16;;;;;;;27.05;16.58;;;12.60;99.90;;;;;;5027706;28;20064;-57
2023/09/27 06:08:41;;;;;;;24.73;16.15;;;12.70;99.90;;;;;;5024613;28;20076;-58
2023/09/27 06:11:08;;;;;;;25.80;15.48;;;12.70;99.90;;;;;;5026272;28;20075;-58
2023/09/27 06:13:33;;;;;;;27.38;15.98;;;12.80;99.90;;;;;;5026734;28;20033;-55
2023/09/27 06:16:00;;;;;;;24.05;16.30;;;12.90;99.90;;;;;;5022853;28;20041;-60
2023/09/27 06:18:26;;;;;;;24.50;14.90;;;12.90;99.90;;;;;;5034252;28;20064;-56
2023/09/27 06:20:54;;;;;;;25.88;16.15;;;13.00;99.90;;;;;;5020567;28;20524;-58
2023/09/27 06:23:20;;;;;;;23.58;15.85;;;13.10;99.90;;;;;;5028605;28;20028;-57
2023/09/27 06:25:46;;;;;;;27.08;17.35;;;13.10;99.90;;;;;;5023295;28;20402;-54
2023/09/27 06:28:13;;;;;;;25.23;16.35;;;13.20;99.90;;;;;;5017969;28;20017;-60
2023/09/27 06:30:42;;;;;;;24.23;15.35;;;13.30;99.90;;;;;;5021030;28;20039;-58
2023/09/27 06:33:09;;;;;;;27.17;16.27;;;13.30;99.90;;;;;;5029235;28;20017;-59
2023/09/27 06:35:36;;;;;;;25.55;17.02;;;13.40;99.90;;;;;;5017101;28;20470;-58
2023/09/27 06:38:02;;;;;;;28.08;17.60;;;13.40;99.90;;;;;;5030342;28;20550;-59
2023/09/27 06:40:29;;;;;;;24.65;16.88;;;13.50;99.90;;;;;;5020455;28;20033;-58
2023/09/27 06:42:55;;;;;;;27.17;16.98;;;13.50;99.90;;;;;;5021072;28;20025;-59
2023/09/27 06:45:22;;;;;;;21.95;16.27;;;13.60;99.90;;;;;;5021881;28;20125;-54
2023/09/27 06:47:48;;;;;;;29.67;18.52;;;13.60;99.90;;;;;;5019044;28;20034;-57
2023/09/27 06:50:15;;;;;;;32.17;19.00;;;13.60;99.90;;;;;;5029527;28;20025;-58
2023/09/27 06:52:40;;;;;;;28.60;17.88;;;13.70;99.90;;;;;;5025360;28;20057;-59
2023/09/27 06:55:16;;;;;;;23.80;15.57;;;13.70;99.90;;;;;;5020558;28;20463;-59
2023/09/27 06:57:44;;;;;;;29.60;16.30;;;13.80;99.90;;;;;;5017161;28;20038;-60
2023/09/27 07:00:12;;;;;;;22.00;15.38;;;13.80;99.90;;;;;;5016611;28;20037;-59
2023/09/27 07:02:41;;;;;;;22.17;14.95;;;13.80;99.90;;;;;;5018842;28;20057;-60
2023/09/27 07:05:08;;;;;;;24.10;16.00;;;13.90;99.90;;;;;;5018544;28;20002;-58
2023/09/27 07:07:34;;;;;;;26.25;16.83;;;13.90;99.90;;;;;;5025574;28;20509;-58
2023/09/27 07:09:59;;;;;;;19.98;14.52;;;13.90;99.90;;;;;;5022603;28;20049;-59
2023/09/27 07:12:25;;;;;;;27.27;16.48;;;14.00;99.90;;;;;;5018265;28;20060;-57
2023/09/27 07:14:51;;;;;;;24.95;16.48;;;14.10;99.90;;;;;;5020427;28;20110;-56
2023/09/27 07:17:17;;;;;;;25.60;16.58;;;14.10;99.90;;;;;;5021937;28;20517;-58
2023/09/27 07:19:43;;;;;;;24.17;14.93;;;14.20;99.90;;;;;;5018240;28;20038;-59
2023/09/27 07:22:10;;;;;;;25.70;15.63;;;14.20;99.90;;;;;;5020097;28;20028;-58
2023/09/27 07:24:36;;;;;;;23.77;15.77;;;14.30;99.90;;;;;;5030968;28;20108;-60
2023/09/27 07:27:02;;;;;;;22.90;15.07;;;14.30;99.90;;;;;;5019602;28;20497;-59
2023/09/27 07:29:27;;;;;;;23.75;14.98;;;14.40;99.90;;;;;;5011938;28;20447;-55
2023/09/27 07:31:53;;;;;;;17.90;13.63;;;14.50;99.90;;;;;;5025142;28;20025;-55
2023/09/27 07:34:20;;;;;;;27.25;15.80;;;14.60;99.90;;;;;;5028876;28;20456;-59
2023/09/27 07:36:45;;;;;;;22.70;13.63;;;14.60;99.90;;;;;;5019320;28;20099;-58
2023/09/27 07:39:13;;;;;;;21.92;14.25;;;14.60;99.90;;;;;;5020880;28;20038;-59
2023/09/27 07:41:38;;;;;;;19.08;12.60;;;14.70;99.90;;;;;;5019918;28;20403;-59
2023/09/27 07:44:07;;;;;;;20.80;13.80;;;14.70;99.90;;;;;;5023279;28;20034;-59
2023/09/27 07:46:33;;;;;;;19.05;13.63;;;14.80;99.90;;;;;;5018882;28;20079;-58
2023/09/27 07:48:59;;;;;;;22.67;13.57;;;14.80;99.90;;;;;;5022207;28;20508;-58
2023/09/27 07:51:24;;;;;;;24.00;14.07;;;14.80;99.90;;;;;;5027538;28;20026;-59
2023/09/27 07:53:50;;;;;;;26.05;14.57;;;14.90;99.90;;;;;;5025193;28;20025;-59
2023/09/27 07:56:23;;;;;;;27.85;14.38;;;15.00;99.90;;;;;;5021191;28;20078;-58
2023/09/27 07:58:51;;;;;;;16.27;11.60;;;14.90;99.90;;;;;;5018026;28;20112;-58
2023/09/27 08:01:20;;;;;;;23.23;11.70;;;15.00;99.90;;;;;;5019484;28;20283;-60
2023/09/27 08:03:51;;;;;;;21.75;12.48;;;15.00;99.90;;;;;;5013454;28;20032;-59
2023/09/27 08:06:18;;;;;;;18.60;11.25;;;15.10;99.90;;;;;;5025331;28;20109;-59
2023/09/27 08:08:44;;;;;;;16.30;11.25;;;15.10;99.90;;;;;;5023055;28;20120;-60
2023/09/27 08:11:13;;;;;;;21.92;10.75;;;15.20;99.90;;;;;;5031324;28;20156;-58
2023/09/27 08:13:39;;;;;;;16.63;11.88;;;15.20;99.90;;;;;;5019549;28;20620;-58
2023/09/27 08:16:07;;;;;;;18.23;11.15;;;15.20;99.90;;;;;;5019516;28;20088;-59
2023/09/27 08:18:33;;;;;;;15.68;10.38;;;15.30;99.90;;;;;;5027846;28;20032;-56
2023/09/27 08:21:00;;;;;;;17.63;11.43;;;15.40;99.90;;;;;;5026428;28;20075;-53
2023/09/27 08:23:25;;;;;;;12.82;9.52;;;15.40;99.90;;;;;;5021128;28;20132;-56
2023/09/27 08:25:52;;;;;;;13.55;9.65;;;15.50;99.90;;;;;;5023784;28;20566;-57
2023/09/27 08:28:20;;;;;;;12.98;9.50;;;15.60;99.90;;;;;;5022498;28;20045;-56
2023/09/27 08:30:47;;;;;;;16.10;9.88;;;15.70;99.90;;;;;;5020924;28;20028;-59
2023/09/27 08:33:13;;;;;;;15.38;9.13;;;15.80;99.90;;;;;;5024594;28;20021;-58
2023/09/27 08:35:38;;;;;;;17.90;8.63;;;15.90;99.90;;;;;;5021455;28;20026;-55
2023/09/27 08:38:04;;;;;;;14.48;8.75;;;16.00;99.90;;;;;;5021497;28;20018;-57
2023/09/27 08:40:30;;;;;;;18.83;8.65;;;16.10;99.90;;;;;;5023733;28;20096;-58
2023/09/27 08:42:58;;;;;;;16.42;9.02;;;16.20;99.90;;;;;;5022349;28;20803;-59
2023/09/27 08:45:24;;;;;;;16.27;10.85;;;16.30;99.90;;;;;;5020199;28;20025;-58
2023/09/27 08:47:50;;;;;;;12.40;8.80;;;16.50;99.90;;;;;;5019128;28;20034;-58
2023/09/27 08:50:18;;;;;;;12.10;8.65;;;16.50;99.90;;;;;;5024839;28;20025;-60
2023/09/27 08:52:48;;;;;;;16.73;10.30;;;16.60;99.90;;;;;;5021811;28;20033;-59
2023/09/27 08:55:15;;;;;;;17.50;8.88;;;16.80;99.90;;;;;;5028751;28;20539;-59
2023/09/27 08:57:51;;;;;;;15.25;9.63;;;16.90;99.90;;;;;;5020683;28;20502;-60
2023/09/27 09:00:20;;;;;;;12.38;8.40;;;17.00;99.90;;;;;;5028154;28;20033;-58
2023/09/27 09:02:48;;;;;;;13.30;8.85;;;17.20;99.90;;;;;;5025104;28;20037;-59
2023/09/27 09:05:15;;;;;;;15.95;8.30;;;17.30;99.90;;;;;;5026718;28;20498;-60
2023/09/27 09:07:41;;;;;;;19.00;9.05;;;17.40;99.90;;;;;;5026931;28;20033;-57
2023/09/27 09:10:11;;;;;;;14.25;7.50;;;17.40;99.90;;;;;;5025469;28;20048;-59
2023/09/27 09:12:38;;;;;;;9.75;7.05;;;17.60;99.90;;;;;;5027185;28;20056;-56
2023/09/27 09:15:05;;;;;;;10.73;7.80;;;17.70;99.90;;;;;;5026361;28;20729;-55
2023/09/27 09:17:35;;;;;;;8.50;6.25;;;17.80;99.90;;;;;;5025880;28;20044;-59
2023/09/27 09:20:28;;;;;;;9.25;6.50;;;18.00;99.90;;;;;;5021849;28;20104;-59
2023/09/27 09:22:54;;;;;;;8.68;6.57;;;18.10;99.90;;;;;;5023166;28;20038;-56
2023/09/27 09:25:24;;;;;;;9.32;5.88;;;18.30;99.90;;;;;;5027533;28;20029;-59
2023/09/27 09:28:03;;;;;;;9.07;5.38;;;18.50;99.90;;;;;;5028686;28;20033;-60
2023/09/27 09:30:39;;;;;;;10.52;6.07;;;18.60;99.90;;;;;;5025948;28;20022;-59
2023/09/27 09:33:36;;;;;;;9.23;6.28;;;18.70;99.90;;;;;;5027179;28;20041;-60
2023/09/27 09:36:02;;;;;;;10.25;5.00;;;18.80;99.90;;;;;;5033224;28;20032;-60
2023/09/27 09:38:30;;;;;;;7.55;5.00;;;18.90;99.90;;;;;;5022819;28;20116;-57
2023/09/27 09:41:02;;;;;;;13.32;4.70;;;19.00;99.90;;;;;;5027446;28;20398;-57
2023/09/27 09:43:36;;;;;;;13.82;5.53;;;19.20;99.90;;;;;;5024053;28;20059;-56
2023/09/27 09:46:08;;;;;;;7.45;4.43;;;19.30;99.90;;;;;;5021918;28;20152;-55
2023/09/27 09:48:34;;;;;;;6.50;4.63;;;19.40;99.90;;;;;;5030185;28;20021;-61
2023/09/27 09:51:11;;;;;;;7.35;5.05;;;19.50;99.90;;;;;;5027044;28;20025;-58
2023/09/27 09:53:41;;;;;;;6.93;4.05;;;19.70;99.90;;;;;;5026586;28;20042;-59
2023/09/27 09:56:08;;;;;;;10.25;4.93;;;19.90;99.90;;;;;;5026205;28;20102;-59
2023/09/27 09:58:47;;;;;;;10.18;4.97;;;20.10;99.90;;;;;;5029852;28;20025;-59
2023/09/27 10:01:21;;;;;;;7.43;4.25;;;20.20;99.90;;;;;;5025219;28;20021;-61
2023/09/27 10:03:48;;;;;;;10.40;4.57;;;20.40;99.90;;;;;;5027009;28;20037;-60
2023/09/27 10:06:19;;;;;;;5.80;3.72;;;20.50;99.90;;;;;;5025033;28;20025;-59
2023/09/27 10:08:47;;;;;;;10.63;3.58;;;20.70;99.90;;;;;;5028625;28;20072;-60
2023/09/27 10:11:13;;;;;;;8.38;3.47;;;21.00;99.90;;;;;;5022504;28;20022;-60
2023/09/27 10:13:40;;;;;;;8.63;3.63;;;21.00;99.90;;;;;;5025180;28;20373;-61
2023/09/27 10:16:07;;;;;;;9.27;4.07;;;21.00;99.90;;;;;;5020064;28;20121;-60
2023/09/27 10:18:36;;;;;;;10.40;4.53;;;20.90;99.90;;;;;;5026188;28;20061;-59
2023/09/27 10:21:05;;;;;;;8.23;3.70;;;21.10;99.90;;;;;;5022988;28;20069;-60
2023/09/27 10:23:58;;;;;;;11.98;3.78;;;21.30;99.90;;;;;;5027855;28;20424;-58
2023/09/27 10:26:31;;;;;;;7.25;4.00;;;21.60;99.90;;;;;;5025635;28;20079;-61
2023/09/27 10:29:03;;;;;;;8.73;3.78;;;21.70;99.90;;;;;;5022556;28;20018;-59
2023/09/27 10:31:37;;;;;;;10.05;3.53;;;22.00;99.90;;;;;;5022241;28;20872;-59
2023/09/27 10:34:23;;;;;;;;;;;22.10;99.90;;;;;;5023062;28;20079;-59
2023/09/27 10:36:48;;;;;;;6.72;4.00;;;22.10;99.90;;;;;;5026743;28;19910;-57
2023/09/27 10:39:15;;;;;;;8.93;3.63;;;22.20;99.90;;;;;;5020010;28;20029;-59
2023/09/27 10:41:48;;;;;;;10.82;3.30;;;22.40;99.90;;;;;;5026853;28;20034;-60
2023/09/27 10:44:33;;;;;;;8.90;3.10;;;22.40;99.90;;;;;;5024132;28;20492;-60
2023/09/27 10:47:00;;;;;;;4.53;2.78;;;22.70;99.90;;;;;;5021559;28;20080;-59
2023/09/27 10:49:37;;;;;;;6.05;3.78;;;22.80;99.90;;;;;;5019699;28;20080;-57
2023/09/27 10:52:04;;;;;;;4.75;2.92;;;23.00;99.90;;;;;;5025073;28;20021;-59
2023/09/27 10:54:29;;;;;;;9.00;3.28;;;23.00;99.90;;;;;;5020676;28;20105;-59
2023/09/27 10:56:56;;;;;;;7.30;3.33;;;23.30;99.90;;;;;;5022792;28;20131;-61
2023/09/27 10:59:30;;;;;;;3.75;2.75;;;23.50;99.90;;;;;;5017506;28;20030;-61
2023/09/27 11:01:56;;;;;;;3.72;2.95;;;23.40;99.90;;;;;;5018932;28;20112;-57
2023/09/27 11:04:24;;;;;;;9.55;3.00;;;23.50;99.90;;;;;;5024326;28;20096;-60
2023/09/27 11:06:50;;;;;;;3.83;2.75;;;23.60;99.90;;;;;;5021973;28;20026;-57
2023/09/27 11:09:19;;;;;;;3.13;2.45;;;23.70;99.90;;;;;;5018199;28;20049;-57
2023/09/27 11:11:49;;;;;;;4.97;2.95;;;23.90;99.90;;;;;;5019174;28;20032;-61
2023/09/27 11:14:25;;;;;;;5.82;2.75;;;24.10;99.90;;;;;;5025369;28;20487;-59
2023/09/27 11:16:51;;;;;;;5.22;2.63;;;24.30;99.90;;;;;;5019324;28;20026;-61
2023/09/27 11:19:26;;;;;;;7.72;3.13;;;24.40;99.90;;;;;;5020834;28;20522;-61
2023/09/27 11:21:52;;;;;;;3.10;2.28;;;24.20;99.90;;;;;;5017237;28;20492;-58
2023/09/27 11:24:17;;;;;;;3.67;2.55;;;24.30;99.90;;;;;;5024880;28;20044;-60
2023/09/27 11:26:46;;;;;;;7.55;2.47;;;24.20;99.90;;;;;;5020213;28;20033;-61
2023/09/27 11:29:12;;;;;;;4.90;2.58;;;24.10;99.90;;;;;;5022259;28;20025;-59
2023/09/27 11:31:38;;;;;;;4.05;2.88;;;24.20;99.90;;;;;;5017515;28;20384;-61
2023/09/27 11:34:11;;;;;;;4.00;2.60;;;24.30;99.90;;;;;;5027149;28;20021;-60
2023/09/27 11:36:57;;;;;;;4.15;2.35;;;24.50;99.90;;;;;;5022575;28;20030;-58
2023/09/27 11:39:28;;;;;;;4.30;3.13;;;24.70;99.90;;;;;;5021404;28;20022;-59
2023/09/27 11:42:00;;;;;;;12.20;2.95;;;24.50;99.90;;;;;;5017861;28;20550;-59
2023/09/27 11:44:26;;;;;;;4.45;2.80;;;;;;;;;;5019079;28;20423;-59
2023/09/27 11:47:07;;;;;;;26.27;5.40;;;24.50;99.90;;;;;;5016486;28;20057;-58
2023/09/27 11:49:33;;;;;;;6.13;2.92;;;;;;;;;;5022445;28;20026;-60
2023/09/27 11:51:59;;;;;;;7.10;3.13;;;;;;;;;;5022406;28;20040;-58
2023/09/27 11:54:25;;;;;;;7.30;2.90;;;;;;;;;;5021409;28;20061;-59
2023/09/27 11:56:53;;;;;;;7.22;2.78;;;;;;;;;;5019306;28;20058;-59
2023/09/27 11:59:19;;;;;;;5.60;3.08;;;;;;;;;;5018049;28;20080;-59
2023/09/27 12:01:45;;;;;;;5.10;2.22;;;;;;;;;;5020688;28;20608;-58
2023/09/27 12:04:11;;;;;;;9.23;2.60;;;;;;;;;;5017474;28;20033;-59
2023/09/27 12:06:37;;;;;;;2.88;2.00;;;;;;;;;;5027199;28;20029;-60
2023/09/27 12:09:08;;;;;;;4.95;2.30;;;;;;;;;;5018473;28;20684;-57
2023/09/27 12:11:34;;;;;;;7.18;2.40;;;;;;;;;;5019139;28;20093;-59
2023/09/27 12:14:00;;;;;;;2.60;2.03;;;;;;;;;;5022546;28;20542;-60
2023/09/27 12:16:26;;;;;;;3.33;2.03;;;;;;;;;;5022928;28;20035;-58
2023/09/27 12:18:52;;;;;;;7.15;2.17;;;;;;;;;;5019256;28;20121;-57
2023/09/27 12:21:18;;;;;;;4.80;2.47;;;;;;;;;;5024834;28;20136;-60
2023/09/27 12:23:44;;;;;;;4.65;2.13;;;;;;;;;;5018910;28;20466;-58
2023/09/27 12:26:10;;;;;;;3.00;1.80;;;24.70;99.90;;;;;;5025422;28;20108;-59
2023/09/27 12:28:37;;;;;;;4.55;2.00;;;;;;;;;;5017353;28;20101;-60
2023/09/27 12:31:05;;;;;;;4.57;2.20;;;27.10;99.90;;;;;;5025960;28;20113;-59
2023/09/27 12:33:31;;;;;;;3.70;2.08;;;26.30;99.90;;;;;;5021112;28;20100;-60
2023/09/27 12:35:57;;;;;;;4.00;2.20;;;26.20;99.90;;;;;;5022297;28;20025;-59
2023/09/27 12:38:24;;;;;;;2.65;1.88;;;;;;;;;;5016452;28;20590;-60
2023/09/27 12:40:50;;;;;;;5.18;2.30;;;;;;;;;;5024903;28;20647;-58